sensor_id;sensor_type;location;lat;lon;timestamp;P1;durP1;ratioP1;P2;durP2;ratioP2
18653;SDS011;9456;47.824;16.228;2022-07-06T01:43:50;4.07;;;3.77;;
18653;SDS011;9456;47.824;16.228;2022-07-06T01:46:19;3.90;;;3.60;;
18653;SDS011;9456;47.824;16.228;2022-07-06T04:46:11;2.90;;;2.67;;
18653;SDS011;9456;47.824;16.228;2022-07-06T04:48:39;2.80;;;2.60;;
18653;SDS011;9456;47.824;16.228;2022-07-06T04:51:07;2.97;;;2.87;;
18653;SDS011;9456;47.824;16.228;2022-07-06T04:53:34;2.97;;;2.77;;
18653;SDS011;9456;47.824;16.228;2022-07-06T04:56:03;3.20;;;2.90;;
18653;SDS011;9456;47.824;16.228;2022-07-06T04:58:30;3.07;;;2.83;;
18653;SDS011;9456;47.824;16.228;2022-07-06T05:00:58;3.27;;;3.00;;
18653;SDS011;9456;47.824;16.228;2022-07-06T05:03:27;2.80;;;2.70;;
18653;SDS011;9456;47.824;16.228;2022-07-06T05:05:54;5.57;;;2.83;;
18653;SDS011;9456;47.824;16.228;2022-07-06T05:08:22;2.77;;;2.57;;
18653;SDS011;9456;47.824;16.228;2022-07-06T05:10:49;2.80;;;2.60;;
18653;SDS011;9456;47.824;16.228;2022-07-06T05:13:17;3.17;;;2.97;;
18653;SDS011;9456;47.824;16.228;2022-07-06T05:15:44;2.77;;;2.63;;
18653;SDS011;9456;47.824;16.228;2022-07-06T05:18:12;3.10;;;2.80;;
18653;SDS011;9456;47.824;16.228;2022-07-06T05:20:41;2.77;;;2.60;;
18653;SDS011;9456;47.824;16.228;2022-07-06T05:23:09;2.70;;;2.57;;
18653;SDS011;9456;47.824;16.228;2022-07-06T05:25:36;5.80;;;3.00;;
18653;SDS011;9456;47.824;16.228;2022-07-06T05:28:04;3.00;;;2.80;;
18653;SDS011;9456;47.824;16.228;2022-07-06T05:30:31;3.47;;;2.70;;
18653;SDS011;9456;47.824;16.228;2022-07-06T05:32:59;2.87;;;2.67;;
18653;SDS011;9456;47.824;16.228;2022-07-06T05:35:26;3.20;;;2.87;;
18653;SDS011;9456;47.824;16.228;2022-07-06T05:37:55;2.43;;;2.33;;
18653;SDS011;9456;47.824;16.228;2022-07-06T05:40:22;3.13;;;2.93;;
18653;SDS011;9456;47.824;16.228;2022-07-06T05:42:50;3.37;;;3.17;;
18653;SDS011;9456;47.824;16.228;2022-07-06T05:45:17;2.73;;;2.53;;
18653;SDS011;9456;47.824;16.228;2022-07-06T05:47:45;2.60;;;2.40;;
18653;SDS011;9456;47.824;16.228;2022-07-06T05:50:29;3.27;;;3.00;;
18653;SDS011;9456;47.824;16.228;2022-07-06T05:52:59;3.20;;;2.70;;
18653;SDS011;9456;47.824;16.228;2022-07-06T05:55:26;3.33;;;3.07;;
18653;SDS011;9456;47.824;16.228;2022-07-06T05:57:54;3.20;;;3.00;;
18653;SDS011;9456;47.824;16.228;2022-07-06T06:00:21;3.90;;;2.97;;
18653;SDS011;9456;47.824;16.228;2022-07-06T06:02:49;2.97;;;2.70;;
18653;SDS011;9456;47.824;16.228;2022-07-06T06:05:17;2.87;;;2.40;;
18653;SDS011;9456;47.824;16.228;2022-07-06T06:07:44;3.65;;;2.70;;
18653;SDS011;9456;47.824;16.228;2022-07-06T06:10:14;3.17;;;2.47;;
18653;SDS011;9456;47.824;16.228;2022-07-06T06:12:42;2.95;;;2.60;;
18653;SDS011;9456;47.824;16.228;2022-07-06T06:15:10;2.45;;;2.25;;
18653;SDS011;9456;47.824;16.228;2022-07-06T06:17:38;2.58;;;2.47;;
18653;SDS011;9456;47.824;16.228;2022-07-06T06:20:06;2.85;;;2.33;;
18653;SDS011;9456;47.824;16.228;2022-07-06T06:22:43;2.35;;;2.15;;
18653;SDS011;9456;47.824;16.228;2022-07-06T06:25:11;2.65;;;2.08;;
18653;SDS011;9456;47.824;16.228;2022-07-06T06:27:40;1.67;;;1.58;;
18653;SDS011;9456;47.824;16.228;2022-07-06T06:30:08;1.52;;;1.45;;
18653;SDS011;9456;47.824;16.228;2022-07-06T06:32:36;1.80;;;1.70;;
18653;SDS011;9456;47.824;16.228;2022-07-06T06:35:03;2.97;;;1.67;;
18653;SDS011;9456;47.824;16.228;2022-07-06T06:37:31;1.55;;;1.45;;
18653;SDS011;9456;47.824;16.228;2022-07-06T06:39:59;2.22;;;1.40;;
18653;SDS011;9456;47.824;16.228;2022-07-06T06:42:29;1.52;;;1.42;;
18653;SDS011;9456;47.824;16.228;2022-07-06T06:44:58;1.90;;;1.80;;
18653;SDS011;9456;47.824;16.228;2022-07-06T06:47:25;1.70;;;1.60;;
18653;SDS011;9456;47.824;16.228;2022-07-06T06:49:53;1.65;;;1.60;;
18653;SDS011;9456;47.824;16.228;2022-07-06T06:52:20;1.45;;;1.45;;
18653;SDS011;9456;47.824;16.228;2022-07-06T06:54:48;2.55;;;1.70;;
18653;SDS011;9456;47.824;16.228;2022-07-06T06:57:15;3.45;;;1.90;;
18653;SDS011;9456;47.824;16.228;2022-07-06T06:59:44;1.55;;;1.50;;
18653;SDS011;9456;47.824;16.228;2022-07-06T07:02:13;1.83;;;1.70;;
18653;SDS011;9456;47.824;16.228;2022-07-06T07:04:40;2.15;;;1.55;;
18653;SDS011;9456;47.824;16.228;2022-07-06T07:07:08;1.90;;;1.80;;
18653;SDS011;9456;47.824;16.228;2022-07-06T07:09:35;3.00;;;1.70;;
18653;SDS011;9456;47.824;16.228;2022-07-06T07:12:03;2.15;;;1.75;;
18653;SDS011;9456;47.824;16.228;2022-07-06T07:14:31;5.00;;;1.75;;
18653;SDS011;9456;47.824;16.228;2022-07-06T07:16:59;1.40;;;1.30;;
18653;SDS011;9456;47.824;16.228;2022-07-06T07:19:28;1.45;;;1.35;;
18653;SDS011;9456;47.824;16.228;2022-07-06T07:21:55;1.65;;;1.58;;
18653;SDS011;9456;47.824;16.228;2022-07-06T07:24:22;2.75;;;1.67;;
18653;SDS011;9456;47.824;16.228;2022-07-06T07:26:50;1.45;;;1.42;;
18653;SDS011;9456;47.824;16.228;2022-07-06T07:29:17;1.92;;;1.83;;
18653;SDS011;9456;47.824;16.228;2022-07-06T07:31:44;1.70;;;1.60;;
18653;SDS011;9456;47.824;16.228;2022-07-06T07:34:12;1.90;;;1.80;;
18653;SDS011;9456;47.824;16.228;2022-07-06T07:36:41;3.25;;;1.60;;
18653;SDS011;9456;47.824;16.228;2022-07-06T07:39:08;1.90;;;1.80;;
18653;SDS011;9456;47.824;16.228;2022-07-06T07:41:36;1.77;;;1.70;;
18653;SDS011;9456;47.824;16.228;2022-07-06T07:44:03;1.77;;;1.67;;
18653;SDS011;9456;47.824;16.228;2022-07-06T07:46:31;1.88;;;1.77;;
18653;SDS011;9456;47.824;16.228;2022-07-06T07:48:58;1.55;;;1.45;;
18653;SDS011;9456;47.824;16.228;2022-07-06T07:51:26;1.90;;;1.80;;
18653;SDS011;9456;47.824;16.228;2022-07-06T07:53:55;2.00;;;1.90;;
18653;SDS011;9456;47.824;16.228;2022-07-06T07:56:22;1.73;;;1.63;;
18653;SDS011;9456;47.824;16.228;2022-07-06T07:58:50;1.67;;;1.58;;
18653;SDS011;9456;47.824;16.228;2022-07-06T08:01:17;1.80;;;1.50;;
18653;SDS011;9456;47.824;16.228;2022-07-06T08:03:44;2.33;;;1.75;;
18653;SDS011;9456;47.824;16.228;2022-07-06T08:06:12;1.50;;;1.40;;
18653;SDS011;9456;47.824;16.228;2022-07-06T08:08:40;1.83;;;1.70;;
18653;SDS011;9456;47.824;16.228;2022-07-06T08:11:08;2.05;;;1.50;;
18653;SDS011;9456;47.824;16.228;2022-07-06T08:13:36;3.42;;;1.95;;
18653;SDS011;9456;47.824;16.228;2022-07-06T08:16:04;2.03;;;1.77;;
18653;SDS011;9456;47.824;16.228;2022-07-06T08:18:31;1.75;;;1.65;;
18653;SDS011;9456;47.824;16.228;2022-07-06T08:20:59;2.10;;;1.92;;
18653;SDS011;9456;47.824;16.228;2022-07-06T08:23:26;1.95;;;1.85;;
18653;SDS011;9456;47.824;16.228;2022-07-06T08:25:53;1.75;;;1.65;;
18653;SDS011;9456;47.824;16.228;2022-07-06T08:28:22;2.00;;;1.90;;
18653;SDS011;9456;47.824;16.228;2022-07-06T08:30:50;1.70;;;1.60;;
18653;SDS011;9456;47.824;16.228;2022-07-06T08:33:19;1.88;;;1.77;;
18653;SDS011;9456;47.824;16.228;2022-07-06T08:35:46;2.58;;;1.83;;
18653;SDS011;9456;47.824;16.228;2022-07-06T08:38:14;2.20;;;2.10;;
18653;SDS011;9456;47.824;16.228;2022-07-06T08:40:41;2.40;;;1.83;;
18653;SDS011;9456;47.824;16.228;2022-07-06T08:43:10;1.98;;;1.88;;
18653;SDS011;9456;47.824;16.228;2022-07-06T08:45:41;2.10;;;2.00;;
18653;SDS011;9456;47.824;16.228;2022-07-06T08:48:09;1.95;;;1.85;;
18653;SDS011;9456;47.824;16.228;2022-07-06T08:50:37;2.10;;;2.00;;
18653;SDS011;9456;47.824;16.228;2022-07-06T08:53:05;8.88;;;2.38;;
18653;SDS011;9456;47.824;16.228;2022-07-06T08:55:32;2.08;;;1.83;;
18653;SDS011;9456;47.824;16.228;2022-07-06T08:58:01;2.47;;;2.28;;
18653;SDS011;9456;47.824;16.228;2022-07-06T09:00:29;2.28;;;2.10;;
18653;SDS011;9456;47.824;16.228;2022-07-06T09:03:00;2.92;;;1.88;;
18653;SDS011;9456;47.824;16.228;2022-07-06T09:05:27;4.03;;;2.00;;
18653;SDS011;9456;47.824;16.228;2022-07-06T09:07:55;2.15;;;1.98;;
18653;SDS011;9456;47.824;16.228;2022-07-06T09:10:23;1.92;;;1.83;;
18653;SDS011;9456;47.824;16.228;2022-07-06T09:12:51;1.80;;;1.70;;
18653;SDS011;9456;47.824;16.228;2022-07-06T09:15:22;2.10;;;1.75;;
18653;SDS011;9456;47.824;16.228;2022-07-06T09:17:52;2.17;;;2.05;;
18653;SDS011;9456;47.824;16.228;2022-07-06T09:20:24;2.30;;;2.20;;
18653;SDS011;9456;47.824;16.228;2022-07-06T09:22:53;4.03;;;1.90;;
18653;SDS011;9456;47.824;16.228;2022-07-06T09:25:24;2.92;;;1.90;;
18653;SDS011;9456;47.824;16.228;2022-07-06T09:27:52;1.80;;;1.70;;
18653;SDS011;9456;47.824;16.228;2022-07-06T09:30:20;2.20;;;2.10;;
18653;SDS011;9456;47.824;16.228;2022-07-06T09:32:49;1.90;;;1.70;;
18653;SDS011;9456;47.824;16.228;2022-07-06T09:35:20;2.05;;;1.80;;
18653;SDS011;9456;47.824;16.228;2022-07-06T09:37:50;1.80;;;1.70;;
18653;SDS011;9456;47.824;16.228;2022-07-06T09:40:26;1.90;;;1.80;;
18653;SDS011;9456;47.824;16.228;2022-07-06T09:43:06;1.88;;;1.70;;
18653;SDS011;9456;47.824;16.228;2022-07-06T09:45:34;1.73;;;1.63;;
18653;SDS011;9456;47.824;16.228;2022-07-06T09:48:05;1.48;;;1.38;;
18653;SDS011;9456;47.824;16.228;2022-07-06T09:50:38;1.50;;;1.50;;
18653;SDS011;9456;47.824;16.228;2022-07-06T09:53:08;1.42;;;1.42;;
18653;SDS011;9456;47.824;16.228;2022-07-06T09:55:35;1.60;;;1.50;;
18653;SDS011;9456;47.824;16.228;2022-07-06T09:58:03;2.00;;;1.88;;
18653;SDS011;9456;47.824;16.228;2022-07-06T10:00:30;3.15;;;1.77;;
18653;SDS011;9456;47.824;16.228;2022-07-06T10:02:58;2.05;;;1.80;;
18653;SDS011;9456;47.824;16.228;2022-07-06T10:05:25;1.92;;;1.83;;
18653;SDS011;9456;47.824;16.228;2022-07-06T10:07:56;1.75;;;1.60;;
18653;SDS011;9456;47.824;16.228;2022-07-06T10:10:26;1.25;;;1.25;;
18653;SDS011;9456;47.824;16.228;2022-07-06T10:12:54;1.65;;;1.55;;
18653;SDS011;9456;47.824;16.228;2022-07-06T10:15:22;3.30;;;1.98;;
18653;SDS011;9456;47.824;16.228;2022-07-06T10:17:50;1.63;;;1.52;;
18653;SDS011;9456;47.824;16.228;2022-07-06T10:20:18;1.40;;;1.30;;
18653;SDS011;9456;47.824;16.228;2022-07-06T10:22:46;1.95;;;1.60;;
18653;SDS011;9456;47.824;16.228;2022-07-06T10:25:15;3.08;;;1.70;;
18653;SDS011;9456;47.824;16.228;2022-07-06T10:27:45;1.75;;;1.65;;
18653;SDS011;9456;47.824;16.228;2022-07-06T10:30:13;1.50;;;1.40;;
18653;SDS011;9456;47.824;16.228;2022-07-06T10:32:41;2.00;;;1.77;;
18653;SDS011;9456;47.824;16.228;2022-07-06T10:35:09;1.50;;;1.40;;
18653;SDS011;9456;47.824;16.228;2022-07-06T10:37:37;1.85;;;1.70;;
18653;SDS011;9456;47.824;16.228;2022-07-06T10:40:05;1.63;;;1.52;;
18653;SDS011;9456;47.824;16.228;2022-07-06T10:43:00;1.83;;;1.73;;
18653;SDS011;9456;47.824;16.228;2022-07-06T10:48:17;1.20;;;1.20;;
18653;SDS011;9456;47.824;16.228;2022-07-06T10:50:46;1.35;;;1.35;;
18653;SDS011;9456;47.824;16.228;2022-07-06T10:53:15;1.55;;;1.48;;
18653;SDS011;9456;47.824;16.228;2022-07-06T10:55:44;1.48;;;1.38;;
18653;SDS011;9456;47.824;16.228;2022-07-06T10:58:15;1.38;;;1.38;;
18653;SDS011;9456;47.824;16.228;2022-07-06T11:01:01;1.48;;;1.38;;
18653;SDS011;9456;47.824;16.228;2022-07-06T11:03:36;1.35;;;1.25;;
18653;SDS011;9456;47.824;16.228;2022-07-06T11:06:05;2.50;;;1.73;;
18653;SDS011;9456;47.824;16.228;2022-07-06T11:08:49;1.58;;;1.52;;
18653;SDS011;9456;47.824;16.228;2022-07-06T11:11:17;1.90;;;1.80;;
18653;SDS011;9456;47.824;16.228;2022-07-06T11:13:53;9.55;;;2.28;;
18653;SDS011;9456;47.824;16.228;2022-07-06T11:16:21;2.30;;;1.90;;
18653;SDS011;9456;47.824;16.228;2022-07-06T11:18:59;1.70;;;1.60;;
18653;SDS011;9456;47.824;16.228;2022-07-06T11:24:15;2.87;;;1.50;;
18653;SDS011;9456;47.824;16.228;2022-07-06T11:26:44;1.10;;;1.10;;
18653;SDS011;9456;47.824;16.228;2022-07-06T11:29:15;2.03;;;1.20;;
18653;SDS011;9456;47.824;16.228;2022-07-06T11:31:43;1.83;;;1.30;;
18653;SDS011;9456;47.824;16.228;2022-07-06T11:34:11;1.57;;;1.47;;
18653;SDS011;9456;47.824;16.228;2022-07-06T11:36:39;1.83;;;1.40;;
18653;SDS011;9456;47.824;16.228;2022-07-06T11:39:07;1.40;;;1.30;;
18653;SDS011;9456;47.824;16.228;2022-07-06T11:41:35;1.60;;;1.50;;
18653;SDS011;9456;47.824;16.228;2022-07-06T11:44:03;2.10;;;1.60;;
18653;SDS011;9456;47.824;16.228;2022-07-06T11:46:32;1.57;;;1.47;;
18653;SDS011;9456;47.824;16.228;2022-07-06T11:49:00;2.97;;;1.50;;
18653;SDS011;9456;47.824;16.228;2022-07-06T11:51:28;1.30;;;1.30;;
18653;SDS011;9456;47.824;16.228;2022-07-06T11:53:56;1.83;;;1.50;;
18653;SDS011;9456;47.824;16.228;2022-07-06T11:56:24;1.60;;;1.50;;
18653;SDS011;9456;47.824;16.228;2022-07-06T11:58:52;2.30;;;2.00;;
18653;SDS011;9456;47.824;16.228;2022-07-06T12:01:20;2.33;;;1.37;;
18653;SDS011;9456;47.824;16.228;2022-07-06T12:03:50;1.83;;;1.73;;
18653;SDS011;9456;47.824;16.228;2022-07-06T12:06:18;1.60;;;1.50;;
18653;SDS011;9456;47.824;16.228;2022-07-06T12:08:46;1.60;;;1.50;;
18653;SDS011;9456;47.824;16.228;2022-07-06T12:11:21;2.10;;;1.50;;
18653;SDS011;9456;47.824;16.228;2022-07-06T12:13:49;1.67;;;1.50;;
18653;SDS011;9456;47.824;16.228;2022-07-06T12:16:17;1.70;;;1.60;;
18653;SDS011;9456;47.824;16.228;2022-07-06T12:18:45;1.43;;;1.33;;
18653;SDS011;9456;47.824;16.228;2022-07-06T12:21:16;1.57;;;1.47;;
18653;SDS011;9456;47.824;16.228;2022-07-06T12:23:44;1.70;;;1.60;;
18653;SDS011;9456;47.824;16.228;2022-07-06T12:26:12;1.40;;;1.30;;
18653;SDS011;9456;47.824;16.228;2022-07-06T12:28:40;1.27;;;1.27;;
18653;SDS011;9456;47.824;16.228;2022-07-06T12:31:08;1.43;;;1.33;;
18653;SDS011;9456;47.824;16.228;2022-07-06T12:33:36;1.60;;;1.50;;
18653;SDS011;9456;47.824;16.228;2022-07-06T12:36:10;1.37;;;1.20;;
18653;SDS011;9456;47.824;16.228;2022-07-06T12:38:45;1.07;;;1.07;;
18653;SDS011;9456;47.824;16.228;2022-07-06T12:41:32;1.10;;;1.10;;
18653;SDS011;9456;47.824;16.228;2022-07-06T12:44:00;1.30;;;1.30;;
18653;SDS011;9456;47.824;16.228;2022-07-06T12:46:29;1.43;;;1.20;;
18653;SDS011;9456;47.824;16.228;2022-07-06T12:48:57;1.93;;;1.83;;
18653;SDS011;9456;47.824;16.228;2022-07-06T12:51:25;1.87;;;1.77;;
18653;SDS011;9456;47.824;16.228;2022-07-06T12:53:56;1.63;;;1.63;;
18653;SDS011;9456;47.824;16.228;2022-07-06T12:59:21;2.10;;;2.00;;
18653;SDS011;9456;47.824;16.228;2022-07-06T13:01:49;1.90;;;1.80;;
18653;SDS011;9456;47.824;16.228;2022-07-06T13:04:17;1.60;;;1.60;;
18653;SDS011;9456;47.824;16.228;2022-07-06T13:06:44;1.90;;;1.80;;
18653;SDS011;9456;47.824;16.228;2022-07-06T13:09:13;2.67;;;2.00;;
18653;SDS011;9456;47.824;16.228;2022-07-06T13:11:41;2.40;;;2.20;;
18653;SDS011;9456;47.824;16.228;2022-07-06T13:14:09;2.10;;;2.00;;
18653;SDS011;9456;47.824;16.228;2022-07-06T13:16:36;4.30;;;1.93;;
18653;SDS011;9456;47.824;16.228;2022-07-06T13:19:04;1.93;;;1.83;;
18653;SDS011;9456;47.824;16.228;2022-07-06T13:21:31;2.27;;;2.00;;
18653;SDS011;9456;47.824;16.228;2022-07-06T13:23:58;1.70;;;1.60;;
18653;SDS011;9456;47.824;16.228;2022-07-06T13:26:27;1.70;;;1.60;;
18653;SDS011;9456;47.824;16.228;2022-07-06T13:28:58;1.60;;;1.60;;
18653;SDS011;9456;47.824;16.228;2022-07-06T13:31:26;2.03;;;1.60;;
18653;SDS011;9456;47.824;16.228;2022-07-06T13:33:53;1.47;;;1.47;;
18653;SDS011;9456;47.824;16.228;2022-07-06T13:36:21;1.80;;;1.70;;
18653;SDS011;9456;47.824;16.228;2022-07-06T13:38:48;1.90;;;1.80;;
18653;SDS011;9456;47.824;16.228;2022-07-06T13:41:16;1.90;;;1.80;;
18653;SDS011;9456;47.824;16.228;2022-07-06T13:43:45;1.80;;;1.70;;
18653;SDS011;9456;47.824;16.228;2022-07-06T13:46:12;5.03;;;1.60;;
18653;SDS011;9456;47.824;16.228;2022-07-06T13:48:41;1.87;;;1.77;;
18653;SDS011;9456;47.824;16.228;2022-07-06T13:51:10;1.80;;;1.60;;
18653;SDS011;9456;47.824;16.228;2022-07-06T13:53:37;1.43;;;1.43;;
18653;SDS011;9456;47.824;16.228;2022-07-06T13:56:05;1.70;;;1.60;;
18653;SDS011;9456;47.824;16.228;2022-07-06T13:58:33;1.60;;;1.50;;
18653;SDS011;9456;47.824;16.228;2022-07-06T14:01:02;1.20;;;1.20;;
18653;SDS011;9456;47.824;16.228;2022-07-06T14:03:30;1.40;;;1.30;;
18653;SDS011;9456;47.824;16.228;2022-07-06T14:05:58;1.50;;;1.40;;
18653;SDS011;9456;47.824;16.228;2022-07-06T14:08:27;1.67;;;1.57;;
18653;SDS011;9456;47.824;16.228;2022-07-06T14:10:54;1.47;;;1.37;;
18653;SDS011;9456;47.824;16.228;2022-07-06T14:13:22;1.37;;;1.27;;
18653;SDS011;9456;47.824;16.228;2022-07-06T14:15:49;2.20;;;1.40;;
18653;SDS011;9456;47.824;16.228;2022-07-06T14:18:19;1.67;;;1.57;;
18653;SDS011;9456;47.824;16.228;2022-07-06T14:20:47;2.60;;;1.97;;
18653;SDS011;9456;47.824;16.228;2022-07-06T14:23:15;1.50;;;1.40;;
18653;SDS011;9456;47.824;16.228;2022-07-06T14:25:43;2.00;;;1.90;;
18653;SDS011;9456;47.824;16.228;2022-07-06T14:28:11;2.37;;;1.70;;
18653;SDS011;9456;47.824;16.228;2022-07-06T14:30:39;1.77;;;1.67;;
18653;SDS011;9456;47.824;16.228;2022-07-06T14:33:07;1.70;;;1.60;;
18653;SDS011;9456;47.824;16.228;2022-07-06T14:35:37;1.73;;;1.40;;
18653;SDS011;9456;47.824;16.228;2022-07-06T14:38:05;1.60;;;1.50;;
18653;SDS011;9456;47.824;16.228;2022-07-06T14:40:33;1.60;;;1.50;;
18653;SDS011;9456;47.824;16.228;2022-07-06T14:43:01;1.27;;;1.27;;
18653;SDS011;9456;47.824;16.228;2022-07-06T14:45:29;1.37;;;1.37;;
18653;SDS011;9456;47.824;16.228;2022-07-06T14:47:56;1.20;;;1.20;;
18653;SDS011;9456;47.824;16.228;2022-07-06T14:50:24;1.23;;;1.23;;
18653;SDS011;9456;47.824;16.228;2022-07-06T14:52:53;1.00;;;1.00;;
18653;SDS011;9456;47.824;16.228;2022-07-06T14:55:21;2.17;;;2.00;;
18653;SDS011;9456;47.824;16.228;2022-07-06T14:57:48;1.93;;;1.83;;
18653;SDS011;9456;47.824;16.228;2022-07-06T15:00:16;1.90;;;1.80;;
18653;SDS011;9456;47.824;16.228;2022-07-06T15:02:44;3.60;;;1.90;;
18653;SDS011;9456;47.824;16.228;2022-07-06T15:05:11;2.63;;;2.07;;
18653;SDS011;9456;47.824;16.228;2022-07-06T15:07:39;1.90;;;1.80;;
18653;SDS011;9456;47.824;16.228;2022-07-06T15:10:09;2.00;;;1.90;;
18653;SDS011;9456;47.824;16.228;2022-07-06T15:12:37;2.30;;;2.10;;
18653;SDS011;9456;47.824;16.228;2022-07-06T15:15:04;2.20;;;2.10;;
18653;SDS011;9456;47.824;16.228;2022-07-06T15:17:32;2.57;;;2.37;;
18653;SDS011;9456;47.824;16.228;2022-07-06T15:19:59;2.40;;;2.23;;
18653;SDS011;9456;47.824;16.228;2022-07-06T15:22:27;1.83;;;1.73;;
18653;SDS011;9456;47.824;16.228;2022-07-06T15:24:54;1.77;;;1.70;;
18653;SDS011;9456;47.824;16.228;2022-07-06T15:27:23;3.57;;;2.23;;
18653;SDS011;9456;47.824;16.228;2022-07-06T15:29:51;1.43;;;1.40;;
18653;SDS011;9456;47.824;16.228;2022-07-06T15:32:18;1.40;;;1.30;;
18653;SDS011;9456;47.824;16.228;2022-07-06T15:34:47;1.23;;;1.23;;
18653;SDS011;9456;47.824;16.228;2022-07-06T15:37:14;1.10;;;1.10;;
18653;SDS011;9456;47.824;16.228;2022-07-06T15:39:42;0.90;;;0.90;;
18653;SDS011;9456;47.824;16.228;2022-07-06T15:42:10;0.93;;;0.93;;
18653;SDS011;9456;47.824;16.228;2022-07-06T15:44:39;1.10;;;1.10;;
18653;SDS011;9456;47.824;16.228;2022-07-06T15:47:06;1.37;;;1.27;;
18653;SDS011;9456;47.824;16.228;2022-07-06T15:49:34;1.10;;;1.10;;
18653;SDS011;9456;47.824;16.228;2022-07-06T15:52:01;1.07;;;1.00;;
18653;SDS011;9456;47.824;16.228;2022-07-06T15:54:29;1.10;;;1.10;;
18653;SDS011;9456;47.824;16.228;2022-07-06T15:56:56;1.27;;;1.17;;
18653;SDS011;9456;47.824;16.228;2022-07-06T15:59:24;1.20;;;1.20;;
18653;SDS011;9456;47.824;16.228;2022-07-06T16:01:53;1.63;;;1.13;;
18653;SDS011;9456;47.824;16.228;2022-07-06T16:04:20;1.20;;;1.20;;
18653;SDS011;9456;47.824;16.228;2022-07-06T16:06:49;1.10;;;1.10;;
18653;SDS011;9456;47.824;16.228;2022-07-06T16:09:17;1.30;;;1.30;;
18653;SDS011;9456;47.824;16.228;2022-07-06T16:11:44;1.10;;;1.10;;
18653;SDS011;9456;47.824;16.228;2022-07-06T16:14:11;2.47;;;2.20;;
18653;SDS011;9456;47.824;16.228;2022-07-06T16:16:39;1.17;;;1.17;;
18653;SDS011;9456;47.824;16.228;2022-07-06T16:19:10;1.33;;;1.23;;
18653;SDS011;9456;47.824;16.228;2022-07-06T16:21:37;1.40;;;1.30;;
18653;SDS011;9456;47.824;16.228;2022-07-06T16:24:05;1.30;;;1.30;;
18653;SDS011;9456;47.824;16.228;2022-07-06T16:26:32;1.10;;;1.10;;
18653;SDS011;9456;47.824;16.228;2022-07-06T16:29:00;1.37;;;1.30;;
18653;SDS011;9456;47.824;16.228;2022-07-06T16:31:27;1.50;;;1.40;;
18653;SDS011;9456;47.824;16.228;2022-07-06T16:33:55;1.40;;;1.30;;
18653;SDS011;9456;47.824;16.228;2022-07-06T16:36:24;1.30;;;1.20;;
18653;SDS011;9456;47.824;16.228;2022-07-06T16:38:51;1.13;;;1.13;;
18653;SDS011;9456;47.824;16.228;2022-07-06T16:41:19;1.10;;;1.10;;
18653;SDS011;9456;47.824;16.228;2022-07-06T16:43:46;2.00;;;1.40;;
18653;SDS011;9456;47.824;16.228;2022-07-06T16:46:15;1.33;;;1.30;;
18653;SDS011;9456;47.824;16.228;2022-07-06T16:48:42;1.30;;;1.30;;
18653;SDS011;9456;47.824;16.228;2022-07-06T16:51:10;1.40;;;1.40;;
18653;SDS011;9456;47.824;16.228;2022-07-06T16:53:39;1.40;;;1.33;;
18653;SDS011;9456;47.824;16.228;2022-07-06T16:56:06;1.37;;;1.37;;
18653;SDS011;9456;47.824;16.228;2022-07-06T16:58:34;1.60;;;1.30;;
18653;SDS011;9456;47.824;16.228;2022-07-06T17:01:01;1.23;;;1.23;;
18653;SDS011;9456;47.824;16.228;2022-07-06T17:03:28;1.73;;;1.13;;
18653;SDS011;9456;47.824;16.228;2022-07-06T17:05:56;1.20;;;1.20;;
18653;SDS011;9456;47.824;16.228;2022-07-06T17:08:23;1.50;;;1.40;;
18653;SDS011;9456;47.824;16.228;2022-07-06T17:10:53;1.60;;;1.50;;
18653;SDS011;9456;47.824;16.228;2022-07-06T17:13:20;1.33;;;1.30;;
18653;SDS011;9456;47.824;16.228;2022-07-06T17:15:48;1.20;;;1.20;;
18653;SDS011;9456;47.824;16.228;2022-07-06T17:18:15;1.37;;;1.37;;
18653;SDS011;9456;47.824;16.228;2022-07-06T17:20:43;2.33;;;1.80;;
18653;SDS011;9456;47.824;16.228;2022-07-06T17:23:11;1.83;;;1.40;;
18653;SDS011;9456;47.824;16.228;2022-07-06T17:25:38;1.53;;;1.43;;
18653;SDS011;9456;47.824;16.228;2022-07-06T17:28:08;1.20;;;1.20;;
18653;SDS011;9456;47.824;16.228;2022-07-06T17:30:36;1.50;;;1.40;;
18653;SDS011;9456;47.824;16.228;2022-07-06T17:33:04;1.60;;;1.50;;
18653;SDS011;9456;47.824;16.228;2022-07-06T17:35:31;1.50;;;1.40;;
18653;SDS011;9456;47.824;16.228;2022-07-06T17:37:59;1.40;;;1.40;;
18653;SDS011;9456;47.824;16.228;2022-07-06T17:40:28;1.80;;;1.70;;
18653;SDS011;9456;47.824;16.228;2022-07-06T17:42:55;1.73;;;1.63;;
18653;SDS011;9456;47.824;16.228;2022-07-06T17:45:24;1.53;;;1.50;;
18653;SDS011;9456;47.824;16.228;2022-07-06T17:47:51;1.70;;;1.60;;
18653;SDS011;9456;47.824;16.228;2022-07-06T17:50:19;1.43;;;1.43;;
18653;SDS011;9456;47.824;16.228;2022-07-06T17:52:46;1.63;;;1.53;;
18653;SDS011;9456;47.824;16.228;2022-07-06T17:55:14;1.90;;;1.60;;
18653;SDS011;9456;47.824;16.228;2022-07-06T17:57:41;1.40;;;1.30;;
18653;SDS011;9456;47.824;16.228;2022-07-06T18:00:09;1.80;;;1.70;;
18653;SDS011;9456;47.824;16.228;2022-07-06T18:02:39;1.80;;;1.70;;
18653;SDS011;9456;47.824;16.228;2022-07-06T18:05:06;1.77;;;1.67;;
18653;SDS011;9456;47.824;16.228;2022-07-06T18:07:34;2.60;;;1.60;;
18653;SDS011;9456;47.824;16.228;2022-07-06T18:10:02;1.80;;;1.70;;
18653;SDS011;9456;47.824;16.228;2022-07-06T18:12:31;1.80;;;1.70;;
18653;SDS011;9456;47.824;16.228;2022-07-06T18:14:59;1.87;;;1.77;;
18653;SDS011;9456;47.824;16.228;2022-07-06T18:17:26;1.90;;;1.80;;
18653;SDS011;9456;47.824;16.228;2022-07-06T18:19:55;1.67;;;1.57;;
18653;SDS011;9456;47.824;16.228;2022-07-06T18:22:23;1.90;;;1.80;;
18653;SDS011;9456;47.824;16.228;2022-07-06T18:24:51;1.80;;;1.70;;
18653;SDS011;9456;47.824;16.228;2022-07-06T18:27:18;2.43;;;2.23;;
18653;SDS011;9456;47.824;16.228;2022-07-06T18:29:46;1.63;;;1.63;;
18653;SDS011;9456;47.824;16.228;2022-07-06T18:32:13;1.90;;;1.70;;
18653;SDS011;9456;47.824;16.228;2022-07-06T18:34:41;1.83;;;1.50;;
18653;SDS011;9456;47.824;16.228;2022-07-06T18:37:09;1.77;;;1.70;;
18653;SDS011;9456;47.824;16.228;2022-07-06T18:39:37;1.87;;;1.77;;
18653;SDS011;9456;47.824;16.228;2022-07-06T18:42:04;2.23;;;2.07;;
18653;SDS011;9456;47.824;16.228;2022-07-06T18:44:32;1.90;;;1.80;;
18653;SDS011;9456;47.824;16.228;2022-07-06T18:46:59;2.00;;;1.80;;
18653;SDS011;9456;47.824;16.228;2022-07-06T18:49:27;1.80;;;1.70;;
18653;SDS011;9456;47.824;16.228;2022-07-06T18:51:55;2.10;;;1.90;;
18653;SDS011;9456;47.824;16.228;2022-07-06T18:54:24;1.90;;;1.80;;
18653;SDS011;9456;47.824;16.228;2022-07-06T18:56:51;1.70;;;1.60;;
18653;SDS011;9456;47.824;16.228;2022-07-06T18:59:19;2.47;;;2.00;;
18653;SDS011;9456;47.824;16.228;2022-07-06T19:01:46;2.10;;;2.00;;
18653;SDS011;9456;47.824;16.228;2022-07-06T19:04:14;2.30;;;2.07;;
18653;SDS011;9456;47.824;16.228;2022-07-06T19:06:41;1.80;;;1.70;;
18653;SDS011;9456;47.824;16.228;2022-07-06T19:09:08;1.87;;;1.77;;
18653;SDS011;9456;47.824;16.228;2022-07-06T19:11:37;2.40;;;2.30;;
18653;SDS011;9456;47.824;16.228;2022-07-06T19:14:05;2.23;;;2.13;;
18653;SDS011;9456;47.824;16.228;2022-07-06T19:16:32;2.60;;;2.40;;
18653;SDS011;9456;47.824;16.228;2022-07-06T19:19:02;2.20;;;2.10;;
18653;SDS011;9456;47.824;16.228;2022-07-06T19:21:31;2.97;;;2.30;;
18653;SDS011;9456;47.824;16.228;2022-07-06T19:23:59;2.50;;;2.40;;
18653;SDS011;9456;47.824;16.228;2022-07-06T19:26:26;2.83;;;2.40;;
18653;SDS011;9456;47.824;16.228;2022-07-06T19:28:55;2.77;;;2.57;;
18653;SDS011;9456;47.824;16.228;2022-07-06T19:31:23;2.67;;;2.57;;
18653;SDS011;9456;47.824;16.228;2022-07-06T19:33:50;2.93;;;2.73;;
18653;SDS011;9456;47.824;16.228;2022-07-06T19:36:18;3.40;;;3.20;;
18653;SDS011;9456;47.824;16.228;2022-07-06T19:38:46;2.90;;;2.70;;
18653;SDS011;9456;47.824;16.228;2022-07-06T19:41:13;2.80;;;2.60;;
18653;SDS011;9456;47.824;16.228;2022-07-06T19:43:41;3.10;;;2.80;;